Time;durP1;ratioP1;P1;durP2;ratioP2;P2;SDS_P1;SDS_P2;PMS_P1;PMS_P2;Temp;Humidity;BMP_temperature;BMP_pressure;BME280_temperature;BME280_humidity;BME280_pressure;Samples;Min_cycle;Max_cycle;Signal;HPM_P1;HPM_P2
2022/08/26 00:01:32;;;;;;;4.75;1.77;;;21.60;78.80;;;;;;5046665;28;20578;-78
2022/08/26 00:03:58;;;;;;;6.97;2.13;;;21.60;79.00;;;;;;5048780;28;20211;-76
2022/08/26 00:06:27;;;;;;;5.70;2.22;;;21.60;79.00;;;;;;5048761;28;20180;-77
2022/08/26 00:08:53;;;;;;;8.13;1.70;;;21.50;79.40;;;;;;5049829;28;20198;-79
2022/08/26 00:11:19;;;;;;;2.80;1.73;;;21.40;79.40;;;;;;5050218;28;20191;-79
2022/08/26 00:13:45;;;;;;;3.95;1.67;;;21.40;79.50;;;;;;5045764;28;20423;-78
2022/08/26 00:16:10;;;;;;;3.20;1.75;;;21.30;79.20;;;;;;5043693;28;20207;-78
2022/08/26 00:18:37;;;;;;;1.42;1.33;;;21.20;79.30;;;;;;5049444;28;20284;-78
2022/08/26 00:21:04;;;;;;;7.95;2.33;;;21.20;79.90;;;;;;5048590;28;20218;-78
2022/08/26 00:23:30;;;;;;;3.28;1.85;;;21.30;79.90;;;;;;5042997;28;20176;-78
2022/08/26 00:25:55;;;;;;;3.97;1.98;;;21.20;80.00;;;;;;5051565;28;21778;-78
2022/08/26 00:28:21;;;;;;;2.40;1.75;;;21.20;79.70;;;;;;5052488;28;20190;-78
2022/08/26 00:30:48;;;;;;;4.35;2.20;;;21.10;79.60;;;;;;5045164;28;20221;-79
2022/08/26 00:33:16;;;;;;;3.47;2.10;;;21.10;79.70;;;;;;5054975;28;20357;-78
2022/08/26 00:35:42;;;;;;;5.30;2.03;;;21.10;80.00;;;;;;5050741;28;20215;-78
2022/08/26 00:38:07;;;;;;;5.40;1.77;;;21.10;80.30;;;;;;5052361;28;20180;-78
2022/08/26 00:40:38;;;;;;;5.13;2.20;;;21.20;80.90;;;;;;5052184;28;20183;-79
2022/08/26 00:43:05;;;;;;;2.10;1.45;;;21.10;80.50;;;;;;5049055;28;20190;-79
2022/08/26 00:45:38;;;;;;;5.55;2.00;;;21.10;80.60;;;;;;5050650;28;20293;-78
2022/08/26 00:48:05;;;;;;;5.53;2.22;;;21.10;80.70;;;;;;5051890;28;20582;-78
2022/08/26 00:50:41;;;;;;;4.05;1.85;;;21.10;80.60;;;;;;5053745;28;20236;-78
2022/08/26 00:53:20;;;;;;;4.85;2.05;;;21.00;80.20;;;;;;5054281;28;20183;-78
2022/08/26 00:55:53;;;;;;;8.40;2.33;;;21.00;80.30;;;;;;5082336;28;20267;-79
2022/08/26 00:58:21;;;;;;;5.40;2.53;;;21.00;80.80;;;;;;5053728;28;20192;-79
2022/08/26 01:00:47;;;;;;;4.20;2.33;;;21.00;81.30;;;;;;5052535;28;20223;-77
2022/08/26 01:03:15;;;;;;;6.82;2.45;;;21.00;81.00;;;;;;5063763;28;20211;-78
2022/08/26 01:05:42;;;;;;;5.07;1.80;;;20.90;80.90;;;;;;5047393;28;20966;-77
2022/08/26 01:08:08;;;;;;;4.40;1.55;;;20.90;80.70;;;;;;5057910;28;20207;-78
2022/08/26 01:10:34;;;;;;;3.40;1.48;;;21.00;80.50;;;;;;5052298;28;20203;-77
2022/08/26 01:13:04;;;;;;;3.22;1.83;;;21.00;81.20;;;;;;5058016;28;20258;-77
2022/08/26 01:15:33;;;;;;;8.25;1.83;;;21.00;80.70;;;;;;5054334;28;20184;-77
2022/08/26 01:18:01;;;;;;;5.82;2.63;;;21.00;81.10;;;;;;5055249;28;20180;-77
2022/08/26 01:20:45;;;;;;;6.00;2.28;;;21.10;81.20;;;;;;5056031;28;20262;-77
2022/08/26 01:23:12;;;;;;;5.25;1.80;;;21.10;81.50;;;;;;5053728;28;20179;-77
2022/08/26 01:25:45;;;;;;;6.75;2.00;;;21.10;81.50;;;;;;5048691;28;20211;-77
2022/08/26 01:28:20;;;;;;;5.15;2.40;;;21.00;81.00;;;;;;5047941;28;20171;-78
2022/08/26 01:30:49;;;;;;;9.75;1.83;;;21.00;80.90;;;;;;5044473;28;20243;-77
2022/08/26 01:33:19;;;;;;;2.47;1.60;;;21.00;81.60;;;;;;5055835;28;20179;-77
2022/08/26 01:35:46;;;;;;;7.05;2.10;;;21.00;81.30;;;;;;5050110;28;20199;-78
2022/08/26 01:38:12;;;;;;;3.20;2.05;;;21.00;81.10;;;;;;5055277;28;20967;-77
2022/08/26 01:40:41;;;;;;;4.60;1.90;;;21.00;81.40;;;;;;5052077;28;20194;-78
2022/08/26 01:43:09;;;;;;;5.13;2.47;;;20.90;81.70;;;;;;5051227;28;20217;-77
2022/08/26 01:45:39;;;;;;;6.28;1.75;;;20.90;81.40;;;;;;5047395;28;20919;-77
2022/08/26 01:48:10;;;;;;;3.08;2.10;;;20.80;81.30;;;;;;5048869;28;20594;-77
2022/08/26 01:50:37;;;;;;;5.38;1.90;;;20.80;81.00;;;;;;5049396;28;20192;-77
2022/08/26 01:53:06;;;;;;;2.55;1.88;;;20.80;81.10;;;;;;5052073;28;20687;-77
2022/08/26 01:55:34;;;;;;;3.00;1.50;;;20.80;81.00;;;;;;5056435;28;20194;-78
2022/08/26 01:58:04;;;;;;;1.92;1.77;;;20.80;80.50;;;;;;5055226;28;20214;-77
2022/08/26 02:00:29;;;;;;;8.20;2.50;;;20.70;80.20;;;;;;5049134;28;20179;-77
2022/08/26 02:05:45;;;;;;;6.90;1.85;;;20.70;79.90;;;;;;5050612;28;20250;-77
2022/08/26 02:08:12;;;;;;;2.40;1.50;;;20.80;81.40;;;;;;5047536;28;20222;-77
2022/08/26 02:10:37;;;;;;;5.78;1.85;;;20.80;80.40;;;;;;5051447;28;20187;-77
2022/08/26 02:13:05;;;;;;;3.95;1.45;;;20.80;80.10;;;;;;5052275;28;20176;-77
2022/08/26 02:15:33;;;;;;;4.50;1.90;;;20.70;80.20;;;;;;5050446;28;20188;-77
2022/08/26 02:17:59;;;;;;;3.80;2.00;;;20.80;81.00;;;;;;5055194;28;20184;-78
2022/08/26 02:20:24;;;;;;;4.20;2.10;;;20.80;80.60;;;;;;5049092;28;20186;-78
2022/08/26 02:22:50;;;;;;;3.60;1.50;;;20.80;80.90;;;;;;5050360;28;20278;-77
2022/08/26 02:25:45;;;;;;;4.60;1.67;;;20.80;81.40;;;;;;5046849;28;20219;-78
2022/08/26 02:28:13;;;;;;;7.20;2.10;;;20.80;82.00;;;;;;5051376;28;20186;-78
2022/08/26 02:30:39;;;;;;;1.63;1.63;;;20.70;81.50;;;;;;5051829;28;20205;-77
2022/08/26 02:33:05;;;;;;;4.53;1.92;;;20.70;81.70;;;;;;5051959;28;20275;-78
2022/08/26 02:35:33;;;;;;;2.13;1.80;;;20.70;82.30;;;;;;5049104;28;20313;-78
2022/08/26 02:37:59;;;;;;;7.75;1.95;;;20.70;81.90;;;;;;5053430;28;20178;-78
2022/08/26 02:40:30;;;;;;;4.18;1.90;;;20.70;82.00;;;;;;5050121;28;20282;-78
2022/08/26 02:42:56;;;;;;;2.28;2.08;;;20.70;81.70;;;;;;5048332;28;20205;-78
2022/08/26 02:45:23;;;;;;;7.80;2.53;;;20.70;81.50;;;;;;5047654;28;20211;-78
2022/08/26 02:47:49;;;;;;;4.47;2.03;;;20.70;82.60;;;;;;5049077;28;20184;-77
2022/08/26 02:50:15;;;;;;;2.55;1.58;;;20.70;82.40;;;;;;5047637;28;20187;-78
2022/08/26 02:52:41;;;;;;;3.00;1.90;;;20.70;82.20;;;;;;5051920;28;20332;-77
2022/08/26 02:55:07;;;;;;;4.88;2.10;;;20.70;82.10;;;;;;5045627;28;20643;-78
2022/08/26 02:57:32;;;;;;;4.97;2.08;;;20.70;81.90;;;;;;5056156;28;20183;-78
2022/08/26 02:59:59;;;;;;;6.63;2.05;;;20.60;82.30;;;;;;5047902;28;20172;-78
2022/08/26 03:02:26;;;;;;;4.80;2.15;;;20.60;82.10;;;;;;5051009;28;20180;-79
2022/08/26 03:04:52;;;;;;;7.10;2.45;;;20.60;81.70;;;;;;5054531;28;20238;-78
2022/08/26 03:07:19;;;;;;;4.65;2.22;;;20.60;82.20;;;;;;5049493;28;20653;-78
2022/08/26 03:09:45;;;;;;;2.47;2.05;;;20.60;82.30;;;;;;5053872;28;20182;-79
2022/08/26 03:12:11;;;;;;;3.72;1.75;;;20.60;82.20;;;;;;5048110;28;20180;-78
2022/08/26 03:14:37;;;;;;;4.05;2.08;;;20.60;82.30;;;;;;5054482;28;20187;-79
2022/08/26 03:17:03;;;;;;;2.67;2.20;;;20.70;82.50;;;;;;5055795;28;20237;-77
2022/08/26 03:19:30;;;;;;;5.97;1.90;;;20.70;82.70;;;;;;5047635;28;20206;-77
2022/08/26 03:21:57;;;;;;;4.65;1.83;;;20.60;83.10;;;;;;5052698;28;20693;-77
2022/08/26 03:24:24;;;;;;;10.05;2.45;;;20.50;83.50;;;;;;5051117;28;20322;-77
2022/08/26 03:26:50;;;;;;;3.55;1.90;;;20.50;82.90;;;;;;5048543;28;20661;-77
2022/08/26 03:32:00;;;;;;;3.38;1.98;;;20.50;82.60;;;;;;5047179;28;20191;-79
2022/08/26 03:34:26;;;;;;;7.10;2.13;;;20.50;82.50;;;;;;5045378;28;20918;-79
2022/08/26 03:36:52;;;;;;;7.93;1.85;;;20.50;82.40;;;;;;5046740;28;20184;-77
2022/08/26 03:39:18;;;;;;;3.72;1.90;;;20.50;82.20;;;;;;5051423;28;20661;-77
2022/08/26 03:41:44;;;;;;;3.80;1.70;;;20.50;82.40;;;;;;5046361;28;20338;-78
2022/08/26 03:44:10;;;;;;;7.60;2.05;;;20.60;82.20;;;;;;5048282;28;20227;-78
2022/08/26 03:46:37;;;;;;;6.63;1.58;;;20.60;82.00;;;;;;5049100;28;20730;-78
2022/08/26 03:49:06;;;;;;;6.57;2.25;;;20.60;82.00;;;;;;5046981;28;20198;-78
2022/08/26 03:51:33;;;;;;;11.65;2.10;;;20.60;82.00;;;;;;5046250;28;20175;-78
2022/08/26 03:53:59;;;;;;;5.63;1.95;;;20.60;82.10;;;;;;5050618;28;20194;-77
2022/08/26 03:56:26;;;;;;;6.60;2.25;;;20.60;82.00;;;;;;5046234;28;20180;-78
2022/08/26 03:58:52;;;;;;;3.85;1.95;;;20.70;82.30;;;;;;5051227;28;20183;-78
2022/08/26 04:01:18;;;;;;;4.78;1.90;;;20.70;82.10;;;;;;5043086;28;20617;-78
2022/08/26 04:03:59;;;;;;;11.70;2.85;;;20.70;82.00;;;;;;5046360;28;20261;-78
2022/08/26 04:06:41;;;;;;;5.72;2.28;;;20.70;81.80;;;;;;5054518;28;20813;-78
2022/08/26 04:09:10;;;;;;;13.40;2.42;;;20.70;81.70;;;;;;5056055;28;20211;-79
2022/08/26 04:11:38;;;;;;;4.45;1.98;;;20.70;81.70;;;;;;5050591;28;20267;-79
2022/08/26 04:14:08;;;;;;;5.13;2.38;;;20.70;81.70;;;;;;5052852;28;20273;-78
2022/08/26 04:16:34;;;;;;;9.82;1.58;;;20.60;82.00;;;;;;5055623;28;20186;-79
2022/08/26 04:19:00;;;;;;;1.90;1.80;;;20.70;81.80;;;;;;5054608;28;20213;-78
2022/08/26 04:21:26;;;;;;;3.22;2.00;;;20.70;81.90;;;;;;5054301;28;20202;-79
2022/08/26 04:23:53;;;;;;;5.00;2.42;;;20.70;81.90;;;;;;5052394;28;20190;-78
2022/08/26 04:26:20;;;;;;;5.50;2.50;;;20.80;81.50;;;;;;5055335;28;20187;-78
2022/08/26 04:28:47;;;;;;;8.23;2.28;;;20.80;81.20;;;;;;5051243;28;20577;-79
2022/08/26 04:31:16;;;;;;;11.57;2.10;;;20.90;81.30;;;;;;5057602;28;20175;-79
2022/08/26 04:33:43;;;;;;;5.63;2.08;;;20.90;80.90;;;;;;5051295;28;20194;-79
2022/08/26 04:36:10;;;;;;;6.00;2.00;;;20.90;81.00;;;;;;5055937;28;20209;-78
2022/08/26 04:38:35;;;;;;;11.38;2.20;;;20.90;81.10;;;;;;5054007;28;20184;-77
2022/08/26 04:41:02;;;;;;;3.15;2.10;;;21.00;80.70;;;;;;5052148;28;20191;-78
2022/08/26 04:43:29;;;;;;;11.85;2.35;;;21.00;80.70;;;;;;5050966;28;20184;-77
2022/08/26 04:46:01;;;;;;;4.43;2.00;;;21.00;80.60;;;;;;5052720;28;20285;-78
2022/08/26 04:48:28;;;;;;;9.00;2.38;;;21.00;80.40;;;;;;5054807;28;20190;-78
2022/08/26 04:50:54;;;;;;;3.25;1.77;;;21.00;80.10;;;;;;5051060;28;20187;-78
2022/08/26 04:53:20;;;;;;;6.53;2.28;;;21.10;80.50;;;;;;5046579;28;20544;-82
2022/08/26 04:55:46;;;;;;;2.83;1.90;;;21.10;80.20;;;;;;5048439;28;20191;-78
2022/08/26 04:58:20;;;;;;;12.82;2.17;;;21.10;80.80;;;;;;5047797;28;20180;-78
2022/08/26 05:00:48;;;;;;;7.28;2.17;;;21.10;80.20;;;;;;5047521;28;20189;-78
2022/08/26 05:03:16;;;;;;;5.30;2.67;;;21.10;80.30;;;;;;5050879;28;20599;-78
2022/08/26 05:05:43;;;;;;;8.65;2.83;;;21.10;80.80;;;;;;5049408;28;20226;-79
2022/08/26 05:08:10;;;;;;;5.78;2.30;;;21.20;80.40;;;;;;5049993;28;20183;-76
2022/08/26 05:10:44;;;;;;;13.98;2.65;;;21.30;80.50;;;;;;5050753;28;20572;-75
2022/08/26 05:13:16;;;;;;;6.05;2.30;;;21.40;79.80;;;;;;5050013;28;20273;-78
2022/08/26 05:15:42;;;;;;;8.68;2.30;;;21.40;79.80;;;;;;5050161;28;20597;-78
2022/08/26 05:18:09;;;;;;;16.90;2.90;;;21.50;79.50;;;;;;5048111;28;20368;-77
2022/08/26 05:20:45;;;;;;;15.07;2.78;;;21.50;79.40;;;;;;5050225;28;20195;-78
2022/08/26 05:23:12;;;;;;;7.05;2.20;;;21.60;79.40;;;;;;5050157;28;20183;-78
2022/08/26 05:25:40;;;;;;;7.18;2.38;;;21.60;79.40;;;;;;5054193;28;20290;-78
2022/08/26 05:28:07;;;;;;;5.25;2.53;;;21.60;79.40;;;;;;5052340;28;20219;-78
2022/08/26 05:30:33;;;;;;;10.25;2.97;;;21.60;79.50;;;;;;5049795;28;20668;-77
2022/08/26 05:33:00;;;;;;;5.78;2.72;;;21.70;79.40;;;;;;5051336;28;20180;-79
2022/08/26 05:35:32;;;;;;;6.25;2.25;;;21.70;79.60;;;;;;5053080;28;20179;-78
2022/08/26 05:37:59;;;;;;;3.97;2.40;;;21.70;79.30;;;;;;5050084;28;20306;-80
2022/08/26 05:40:26;;;;;;;4.00;2.30;;;21.90;79.00;;;;;;5062825;28;20182;-79
2022/08/26 05:42:52;;;;;;;5.60;2.63;;;21.90;78.80;;;;;;5053102;28;20632;-79
2022/08/26 05:45:19;;;;;;;6.22;2.67;;;22.00;78.80;;;;;;5051483;28;20211;-78
2022/08/26 05:47:45;;;;;;;9.90;2.83;;;22.10;78.60;;;;;;5053876;28;20802;-76
2022/08/26 05:50:11;;;;;;;5.82;2.50;;;22.10;78.20;;;;;;5058680;28;20175;-83
2022/08/26 05:52:37;;;;;;;2.85;2.25;;;22.20;78.10;;;;;;5052503;28;20179;-77
2022/08/26 05:55:03;;;;;;;6.68;2.70;;;22.20;77.90;;;;;;5057897;28;20179;-82
2022/08/26 05:57:29;;;;;;;10.02;2.60;;;22.20;78.20;;;;;;5059828;28;20179;-77
2022/08/26 05:59:55;;;;;;;11.25;2.63;;;22.30;78.10;;;;;;5064965;28;20187;-77
2022/08/26 06:02:21;;;;;;;9.20;2.13;;;22.30;77.80;;;;;;5068355;28;20180;-76
2022/08/26 06:04:47;;;;;;;6.60;2.67;;;22.30;77.70;;;;;;5068827;28;20237;-75
2022/08/26 06:07:12;;;;;;;3.42;1.80;;;22.40;78.20;;;;;;5069502;28;20172;-77
2022/08/26 06:09:38;;;;;;;4.88;2.38;;;22.40;77.50;;;;;;5064957;28;20187;-77
2022/08/26 06:12:04;;;;;;;11.60;2.63;;;22.40;77.80;;;;;;5070257;28;20207;-77
2022/08/26 06:14:30;;;;;;;4.00;2.50;;;22.50;77.50;;;;;;5065016;28;20188;-76
2022/08/26 06:16:56;;;;;;;7.95;3.00;;;22.60;77.50;;;;;;5060894;28;20188;-76
2022/08/26 06:19:22;;;;;;;6.93;2.45;;;22.60;77.40;;;;;;5063849;28;20187;-77
2022/08/26 06:21:49;;;;;;;4.18;2.50;;;22.70;77.30;;;;;;5063738;28;20202;-76
2022/08/26 06:27:03;;;;;;;5.38;2.30;;;22.80;76.90;;;;;;5068194;28;20671;-76
2022/08/26 06:29:32;;;;;;;6.32;3.10;;;22.80;76.80;;;;;;5057018;28;20184;-76
2022/08/26 06:31:59;;;;;;;10.32;2.88;;;22.90;76.80;;;;;;5058587;28;20187;-76
2022/08/26 06:34:27;;;;;;;2.50;2.10;;;22.90;76.70;;;;;;5061838;28;20183;-77
2022/08/26 06:36:54;;;;;;;8.32;2.30;;;23.00;76.30;;;;;;5068992;28;20179;-77
2022/08/26 06:39:19;;;;;;;4.68;2.47;;;23.00;76.50;;;;;;5063684;28;20272;-77
2022/08/26 06:41:45;;;;;;;5.28;2.60;;;23.10;76.70;;;;;;5070602;28;20611;-77
2022/08/26 06:44:13;;;;;;;5.30;2.55;;;23.10;76.20;;;;;;5065883;28;20235;-77
2022/08/26 06:46:39;;;;;;;5.97;2.83;;;23.20;76.40;;;;;;5058693;28;20197;-77
2022/08/26 06:49:05;;;;;;;12.23;3.08;;;23.20;75.90;;;;;;5070916;28;20189;-78
2022/08/26 06:51:33;;;;;;;6.85;2.58;;;23.20;75.60;;;;;;5069880;28;20282;-77
2022/08/26 06:54:01;;;;;;;10.68;2.28;;;23.30;75.60;;;;;;5060725;28;20187;-77
2022/08/26 06:56:39;;;;;;;4.25;2.63;;;23.30;75.60;;;;;;5064948;28;20207;-77
2022/08/26 06:59:06;;;;;;;9.10;2.75;;;23.40;75.30;;;;;;5061542;28;20179;-78
2022/08/26 07:01:36;;;;;;;4.85;2.47;;;23.40;75.60;;;;;;5067981;28;20191;-77
2022/08/26 07:04:04;;;;;;;3.15;2.40;;;23.40;75.80;;;;;;5061312;28;20180;-77
2022/08/26 07:06:34;;;;;;;14.65;3.40;;;23.50;75.80;;;;;;5065467;28;20231;-77
2022/08/26 07:09:03;;;;;;;5.15;2.38;;;23.40;75.60;;;;;;5067629;28;20180;-77
2022/08/26 07:11:31;;;;;;;5.97;2.60;;;23.50;75.90;;;;;;5070012;28;20803;-76
2022/08/26 07:13:57;;;;;;;6.28;2.72;;;23.50;76.10;;;;;;5059366;28;20191;-75
2022/08/26 07:16:24;;;;;;;12.15;3.03;;;23.70;76.40;;;;;;5064125;28;20872;-75
2022/08/26 07:18:52;;;;;;;4.93;2.53;;;23.80;76.40;;;;;;5055572;28;20180;-76
2022/08/26 07:21:18;;;;;;;10.73;2.50;;;23.90;76.50;;;;;;5058143;28;20179;-75
2022/08/26 07:23:44;;;;;;;7.30;2.78;;;24.00;76.20;;;;;;5061501;28;20559;-75
2022/08/26 07:26:16;;;;;;;4.53;3.05;;;24.10;75.60;;;;;;5064215;28;20190;-76
2022/08/26 07:28:47;;;;;;;6.93;2.88;;;24.20;75.80;;;;;;5065156;28;20184;-76
2022/08/26 07:31:14;;;;;;;6.18;3.13;;;24.30;75.90;;;;;;5062466;28;20187;-76
2022/08/26 07:33:41;;;;;;;12.82;3.30;;;24.40;75.70;;;;;;5062422;28;20214;-75
2022/08/26 07:36:08;;;;;;;6.90;2.90;;;24.60;75.00;;;;;;5061905;28;20790;-77
2022/08/26 07:38:35;;;;;;;8.98;3.33;;;24.70;75.00;;;;;;5059249;28;20184;-76
2022/08/26 07:41:01;;;;;;;10.40;2.83;;;24.80;74.90;;;;;;5057651;28;20168;-76
2022/08/26 07:43:28;;;;;;;6.32;3.13;;;24.90;74.50;;;;;;5055237;28;20186;-76
2022/08/26 07:45:54;;;;;;;9.90;3.13;;;25.00;73.20;;;;;;5060906;28;20245;-76
2022/08/26 07:48:20;;;;;;;5.07;3.00;;;25.00;74.00;;;;;;5063628;28;20187;-77
2022/08/26 07:50:46;;;;;;;7.47;3.10;;;25.10;74.10;;;;;;5060208;28;20234;-78
2022/08/26 07:53:13;;;;;;;4.70;3.22;;;25.20;73.60;;;;;;5067687;28;20237;-77
2022/08/26 07:55:38;;;;;;;14.52;2.92;;;25.30;73.60;;;;;;5054510;28;20222;-77
2022/08/26 07:58:04;;;;;;;2.88;2.63;;;25.40;74.10;;;;;;5066525;28;20432;-77
2022/08/26 08:00:31;;;;;;;7.88;3.15;;;25.40;73.90;;;;;;5068781;28;20180;-77
2022/08/26 08:03:02;;;;;;;9.27;4.10;;;25.50;73.70;;;;;;5071047;28;20582;-77
2022/08/26 08:05:31;;;;;;;9.20;4.38;;;25.60;73.10;;;;;;5062869;28;20228;-77
2022/08/26 08:07:59;;;;;;;7.68;2.88;;;25.60;73.20;;;;;;5063304;28;20192;-78
2022/08/26 08:10:27;;;;;;;9.80;2.85;;;25.70;72.90;;;;;;5062430;28;20201;-77
2022/08/26 08:12:54;;;;;;;4.15;2.78;;;25.80;73.10;;;;;;5063672;28;20273;-76
2022/08/26 08:15:25;;;;;;;11.55;3.22;;;25.90;73.10;;;;;;5057660;28;20493;-77
2022/08/26 08:17:51;;;;;;;11.70;3.45;;;25.90;71.60;;;;;;5059985;28;20214;-77
2022/08/26 08:20:18;;;;;;;6.50;3.15;;;25.90;71.50;;;;;;5063654;28;20201;-77
2022/08/26 08:22:44;;;;;;;7.10;2.97;;;25.90;71.50;;;;;;5071243;28;20183;-77
2022/08/26 08:25:10;;;;;;;7.95;3.13;;;26.00;71.70;;;;;;5065843;28;20876;-77
2022/08/26 08:27:38;;;;;;;6.50;3.30;;;26.00;71.20;;;;;;5057296;28;20214;-77
2022/08/26 08:30:05;;;;;;;2.72;2.53;;;26.00;71.00;;;;;;5058265;28;20186;-75
2022/08/26 08:32:31;;;;;;;6.75;3.05;;;26.20;71.30;;;;;;5056231;28;20211;-77
2022/08/26 08:34:58;;;;;;;6.70;3.25;;;26.20;71.00;;;;;;5061595;28;20646;-78
2022/08/26 08:37:24;;;;;;;5.50;2.65;;;26.30;71.40;;;;;;5066894;28;20183;-78
2022/08/26 08:39:49;;;;;;;7.68;3.38;;;26.40;71.50;;;;;;5072399;28;20183;-77
2022/08/26 08:42:36;;;;;;;9.40;2.78;;;26.60;70.50;;;;;;5071109;28;20199;-77
2022/08/26 08:45:36;;;;;;;6.55;3.15;;;26.70;69.80;;;;;;5075520;28;20205;-77
2022/08/26 08:48:14;;;;;;;4.57;2.40;;;26.80;68.30;;;;;;5059112;28;20266;-77
2022/08/26 08:50:49;;;;;;;4.50;2.78;;;26.80;68.10;;;;;;5060454;28;20992;-78
2022/08/26 08:53:36;;;;;;;3.50;2.60;;;26.90;69.30;;;;;;5067297;28;20664;-77
2022/08/26 08:56:01;;;;;;;3.05;2.53;;;27.00;69.00;;;;;;5056540;28;20223;-77
2022/08/26 08:59:05;;;;;;;7.72;2.65;;;27.00;68.10;;;;;;5059918;28;20190;-76
2022/08/26 09:01:49;;;;;;;6.32;2.60;;;27.00;68.30;;;;;;4993886;28;20201;-77
2022/08/26 09:04:39;;;;;;;7.53;2.85;;;27.00;69.50;;;;;;4995251;28;20305;-76
2022/08/26 09:07:10;;;;;;;7.13;3.00;;;27.10;69.80;;;;;;4994113;28;20216;-76
2022/08/26 09:09:44;;;;;;;8.27;3.63;;;27.30;69.00;;;;;;5000722;28;20185;-77
2022/08/26 09:12:24;;;;;;;5.25;3.67;;;27.40;67.90;;;;;;4986000;28;20202;-78
2022/08/26 09:14:51;;;;;;;6.43;2.88;;;27.40;68.20;;;;;;4998070;28;21068;-77
2022/08/26 09:17:25;;;;;;;12.40;3.08;;;27.40;67.20;;;;;;5013870;28;20714;-77
2022/08/26 09:19:57;;;;;;;9.75;2.65;;;27.50;67.60;;;;;;4995303;28;20331;-77
2022/08/26 09:22:35;;;;;;;6.93;2.25;;;27.70;66.20;;;;;;4994950;28;20189;-77
2022/08/26 09:25:04;;;;;;;4.85;2.75;;;28.10;65.60;;;;;;4988026;28;20366;-76
2022/08/26 09:27:44;;;;;;;4.25;2.78;;;28.40;64.20;;;;;;4991152;28;20192;-76
2022/08/26 09:30:15;;;;;;;7.20;2.90;;;28.70;63.00;;;;;;4988678;28;20257;-76
2022/08/26 09:32:43;;;;;;;5.13;2.40;;;29.00;63.90;;;;;;4985849;28;20361;-76
2022/08/26 09:35:30;;;;;;;8.85;2.65;;;29.20;62.80;;;;;;4985838;28;20233;-76
2022/08/26 09:37:57;;;;;;;6.57;2.50;;;29.60;64.40;;;;;;4969886;28;20192;-77
2022/08/26 09:40:33;;;;;;;4.22;3.22;;;30.10;63.30;;;;;;5034291;28;20669;-76
2022/08/26 09:43:20;;;;;;;6.78;3.30;;;30.80;60.60;;;;;;5035074;28;20218;-76
2022/08/26 09:46:07;;;;;;;6.72;2.90;;;31.40;59.70;;;;;;5033177;28;20267;-76
2022/08/26 09:48:36;;;;;;;6.15;3.50;;;31.80;58.40;;;;;;5038274;28;20720;-77
2022/08/26 09:51:25;;;;;;;4.97;3.47;;;32.00;57.80;;;;;;5037581;28;20196;-76
2022/08/26 09:53:53;;;;;;;5.25;3.25;;;32.00;56.90;;;;;;5033431;28;20230;-75
2022/08/26 09:56:31;;;;;;;8.20;3.83;;;31.80;58.70;;;;;;5030565;28;20231;-75
2022/08/26 09:58:58;;;;;;;5.47;3.33;;;31.70;57.60;;;;;;5029633;28;20176;-76
2022/08/26 10:01:26;;;;;;;5.72;3.00;;;31.80;57.40;;;;;;5032990;28;20695;-78
2022/08/26 10:04:02;;;;;;;3.17;2.92;;;32.10;56.50;;;;;;5028199;28;20260;-78
2022/08/26 10:06:27;;;;;;;4.35;2.95;;;32.40;57.70;;;;;;5027116;28;20190;-77
2022/08/26 10:09:01;;;;;;;7.28;2.90;;;32.80;58.40;;;;;;5013622;28;20191;-78
2022/08/26 10:11:27;;;;;;;3.47;3.10;;;33.10;56.40;;;;;;5024958;28;20206;-77
2022/08/26 10:14:03;;;;;;;2.70;2.50;;;33.60;55.60;;;;;;5028084;28;20674;-76
2022/08/26 10:16:44;;;;;;;4.38;2.47;;;34.00;54.50;;;;;;5046787;28;20732;-76
2022/08/26 10:19:20;;;;;;;6.00;3.33;;;34.30;54.40;;;;;;5060455;28;21003;-77
2022/08/26 10:22:00;;;;;;;4.70;3.17;;;34.70;52.80;;;;;;5051460;28;20247;-76
2022/08/26 10:24:51;;;;;;;4.57;2.78;;;35.10;50.00;;;;;;5048013;28;20700;-76
2022/08/26 10:27:20;;;;;;;9.38;3.55;;;35.50;50.60;;;;;;5054362;28;20182;-76
2022/08/26 10:29:50;;;;;;;4.47;3.47;;;35.80;53.60;;;;;;5054038;28;20221;-77
2022/08/26 10:32:22;;;;;;;4.57;3.40;;;36.10;51.10;;;;;;5050529;28;20248;-76
2022/08/26 10:34:48;;;;;;;11.68;3.85;;;36.50;48.00;;;;;;5053944;28;20214;-76
2022/08/26 10:37:31;;;;;;;6.32;3.63;;;36.90;51.20;;;;;;5051623;28;20954;-77
2022/08/26 10:40:33;;;;;;;5.13;3.92;;;37.30;51.30;;;;;;5049261;28;20205;-77
2022/08/26 10:43:26;;;;;;;4.57;3.15;;;37.70;51.10;;;;;;5001174;28;20202;-76
2022/08/26 10:45:57;;;;;;;4.50;3.67;;;38.30;46.20;;;;;;5005690;28;20262;-76
2022/08/26 10:48:55;;;;;;;11.77;3.42;;;38.50;50.80;;;;;;5004658;28;20204;-77
2022/08/26 10:51:34;;;;;;;5.88;3.30;;;39.20;49.30;;;;;;4963101;28;20194;-76
2022/08/26 10:54:12;;;;;;;8.88;3.42;;;39.70;52.00;;;;;;4964068;28;20224;-77
2022/08/26 10:56:52;;;;;;;3.67;2.72;;;40.30;47.80;;;;;;4960233;28;20250;-77
2022/08/26 10:59:18;;;;;;;4.97;3.47;;;41.00;50.80;;;;;;4963090;28;21009;-77
2022/08/26 11:01:58;;;;;;;5.47;3.72;;;41.60;49.30;;;;;;4964936;28;20212;-77
2022/08/26 11:04:52;;;;;;;6.53;4.15;;;42.20;49.30;;;;;;4964650;28;20260;-78
2022/08/26 11:07:38;;;;;;;5.85;4.40;;;42.80;43.60;;;;;;4967165;28;20197;-77
2022/08/26 11:10:29;;;;;;;4.07;3.83;;;42.70;41.70;;;;;;4961467;28;20201;-77
2022/08/26 11:13:02;;;;;;;4.28;3.97;;;42.30;41.60;;;;;;4964124;28;20205;-78
2022/08/26 11:15:28;;;;;;;8.15;4.63;;;41.80;47.10;;;;;;4962990;28;20694;-78
2022/08/26 11:17:58;;;;;;;4.80;4.50;;;41.20;44.30;;;;;;4969741;28;20224;-78
2022/08/26 11:20:31;;;;;;;4.65;4.35;;;41.10;48.80;;;;;;4978005;28;20258;-78
2022/08/26 11:23:25;;;;;;;4.75;4.03;;;41.20;46.90;;;;;;4979710;28;20196;-78
2022/08/26 11:26:03;;;;;;;5.30;4.30;;;41.60;42.50;;;;;;4981794;28;20300;-77
2022/08/26 11:28:43;;;;;;;4.43;4.10;;;41.70;46.80;;;;;;5016850;28;20205;-78
2022/08/26 11:31:29;;;;;;;8.50;4.55;;;41.90;44.00;;;;;;5040618;28;20804;-77
2022/08/26 11:34:05;;;;;;;4.10;3.80;;;42.20;42.80;;;;;;5023591;28;20281;-78
2022/08/26 11:36:36;;;;;;;5.50;4.40;;;42.30;44.00;;;;;;5025229;28;20676;-77
2022/08/26 11:39:29;;;;;;;4.38;4.13;;;42.40;41.90;;;;;;5046682;28;20191;-77
2022/08/26 11:42:04;;;;;;;9.10;4.60;;;42.50;41.70;;;;;;5043274;28;20330;-77
2022/08/26 11:44:40;;;;;;;5.72;4.00;;;42.70;40.70;;;;;;5047043;28;20209;-77
2022/08/26 11:47:09;;;;;;;5.25;4.15;;;42.90;40.40;;;;;;5043602;28;20266;-77
2022/08/26 11:49:36;;;;;;;4.18;3.83;;;43.00;41.80;;;;;;5042741;28;20689;-77
2022/08/26 11:52:12;;;;;;;3.75;3.42;;;43.00;42.30;;;;;;5037349;28;20214;-77
2022/08/26 11:54:38;;;;;;;3.63;3.42;;;43.10;41.60;;;;;;5047072;28;20214;-77
2022/08/26 11:57:07;;;;;;;3.88;3.22;;;43.20;45.10;;;;;;5040891;28;20197;-78
2022/08/26 11:59:37;;;;;;;6.68;2.97;;;43.20;40.20;;;;;;5043616;28;20190;-78
2022/08/26 12:02:11;;;;;;;3.80;3.00;;;43.40;40.90;;;;;;5043634;28;20210;-77
2022/08/26 12:04:41;;;;;;;2.60;2.50;;;43.50;38.80;;;;;;5046751;28;20178;-77
2022/08/26 12:07:08;;;;;;;5.60;2.85;;;43.60;40.90;;;;;;5045980;28;20258;-77
2022/08/26 12:09:36;;;;;;;3.10;2.92;;;43.90;41.80;;;;;;5049509;28;20324;-77
2022/08/26 12:12:21;;;;;;;3.53;3.33;;;44.10;40.80;;;;;;5050436;28;20237;-77
2022/08/26 12:14:47;;;;;;;3.97;2.55;;;44.30;41.40;;;;;;5046847;28;20238;-77
2022/08/26 12:17:24;;;;;;;3.00;2.60;;;44.50;41.50;;;;;;5049131;28;20226;-78
2022/08/26 12:19:50;;;;;;;3.97;2.65;;;44.70;40.50;;;;;;5046927;28;20222;-77
2022/08/26 12:22:22;;;;;;;7.13;2.50;;;44.60;42.90;;;;;;5044294;28;20211;-78
2022/08/26 12:25:00;;;;;;;2.50;2.40;;;44.30;39.10;;;;;;5049372;28;20278;-77
2022/08/26 12:27:29;;;;;;;2.80;2.30;;;44.10;43.10;;;;;;5053257;28;20229;-76
2022/08/26 12:30:11;;;;;;;4.93;2.58;;;43.90;39.90;;;;;;5051317;28;20264;-76
2022/08/26 12:32:40;;;;;;;3.00;2.80;;;43.60;38.80;;;;;;5053400;28;20943;-79
2022/08/26 12:35:12;;;;;;;2.50;2.30;;;43.50;43.90;;;;;;5048872;28;20207;-78
2022/08/26 12:37:42;;;;;;;2.92;2.40;;;43.60;39.30;;;;;;5051518;28;20179;-78
2022/08/26 12:40:29;;;;;;;2.92;2.58;;;43.50;40.50;;;;;;5055460;28;20175;-76
2022/08/26 12:42:57;;;;;;;3.22;2.33;;;43.40;38.50;;;;;;5069936;28;20698;-75
2022/08/26 12:45:29;;;;;;;2.38;2.38;;;43.60;39.80;;;;;;5048795;28;21045;-75
2022/08/26 12:47:59;;;;;;;2.20;2.10;;;43.60;41.30;;;;;;5049642;28;20252;-74
2022/08/26 12:50:28;;;;;;;2.47;2.28;;;43.70;39.80;;;;;;5055169;28;20182;-75
2022/08/26 12:53:20;;;;;;;2.53;1.77;;;43.90;41.00;;;;;;5056663;28;20288;-75
2022/08/26 12:55:49;;;;;;;2.17;2.00;;;43.80;41.30;;;;;;5021456;28;20236;-75
2022/08/26 12:58:15;;;;;;;2.67;1.95;;;43.50;41.10;;;;;;5021167;28;20335;-74
2022/08/26 13:00:46;;;;;;;2.50;2.35;;;43.20;38.80;;;;;;5023285;28;20207;-75
2022/08/26 13:03:26;;;;;;;4.22;1.85;;;43.10;40.10;;;;;;5021482;28;20191;-75
2022/08/26 13:05:52;;;;;;;2.50;2.08;;;42.90;38.90;;;;;;5022196;28;20179;-75
2022/08/26 13:08:26;;;;;;;2.03;1.63;;;42.80;39.80;;;;;;5022923;28;20677;-74
2022/08/26 13:11:27;;;;;;;2.70;1.70;;;42.80;41.10;;;;;;5020941;28;20974;-75